sensor_id;sensor_type;location;lat;lon;timestamp;pressure;altitude;pressure_sealevel;temperature;humidity
41703;BME280;861;48.808;9.006;2023-08-30T00:01:10;96513.72;;;16.46;82.31
41703;BME280;861;48.808;9.006;2023-08-30T00:03:37;96509.66;;;16.22;83.15
41703;BME280;861;48.808;9.006;2023-08-30T00:06:05;96513.84;;;16.26;83.95
41703;BME280;861;48.808;9.006;2023-08-30T00:08:34;96504.63;;;16.33;82.75
41703;BME280;861;48.808;9.006;2023-08-30T00:11:01;96501.88;;;16.33;83.64
41703;BME280;861;48.808;9.006;2023-08-30T00:13:31;96500.75;;;16.46;81.97
41703;BME280;861;48.808;9.006;2023-08-30T00:16:00;96511.47;;;16.41;82.28
41703;BME280;861;48.808;9.006;2023-08-30T00:18:29;96512.50;;;16.47;82.19
41703;BME280;861;48.808;9.006;2023-08-30T00:20:55;96507.94;;;16.40;82.75
41703;BME280;861;48.808;9.006;2023-08-30T00:23:23;96504.16;;;16.22;83.92
41703;BME280;861;48.808;9.006;2023-08-30T00:25:50;96501.75;;;16.24;83.32
41703;BME280;861;48.808;9.006;2023-08-30T00:28:17;96500.47;;;16.28;83.73
41703;BME280;861;48.808;9.006;2023-08-30T00:30:43;96500.06;;;16.14;84.43
41703;BME280;861;48.808;9.006;2023-08-30T00:33:10;96503.25;;;16.12;84.13
41703;BME280;861;48.808;9.006;2023-08-30T00:35:36;96502.81;;;16.14;83.89
41703;BME280;861;48.808;9.006;2023-08-30T00:38:03;96498.84;;;16.31;83.80
41703;BME280;861;48.808;9.006;2023-08-30T00:40:32;96498.97;;;16.40;82.56
41703;BME280;861;48.808;9.006;2023-08-30T00:43:04;96490.78;;;16.24;83.60
41703;BME280;861;48.808;9.006;2023-08-30T00:45:30;96486.16;;;16.21;83.52
41703;BME280;861;48.808;9.006;2023-08-30T00:47:57;96479.25;;;16.29;83.33
41703;BME280;861;48.808;9.006;2023-08-30T00:50:24;96478.72;;;16.34;82.06
41703;BME280;861;48.808;9.006;2023-08-30T00:52:51;96479.53;;;16.47;81.89
41703;BME280;861;48.808;9.006;2023-08-30T00:55:17;96478.16;;;16.39;82.31
41703;BME280;861;48.808;9.006;2023-08-30T00:57:44;96474.22;;;16.40;82.35
41703;BME280;861;48.808;9.006;2023-08-30T01:00:12;96476.69;;;16.22;82.70
41703;BME280;861;48.808;9.006;2023-08-30T01:02:38;96471.16;;;16.09;84.29
41703;BME280;861;48.808;9.006;2023-08-30T01:05:06;96473.53;;;16.36;81.85
41703;BME280;861;48.808;9.006;2023-08-30T01:07:35;96468.44;;;16.50;81.00
41703;BME280;861;48.808;9.006;2023-08-30T01:10:02;96477.38;;;16.54;80.74
41703;BME280;861;48.808;9.006;2023-08-30T01:12:47;96469.56;;;16.53;81.16
41703;BME280;861;48.808;9.006;2023-08-30T01:15:21;96472.63;;;16.26;81.55
41703;BME280;861;48.808;9.006;2023-08-30T01:17:56;96468.81;;;15.95;83.89
41703;BME280;861;48.808;9.006;2023-08-30T01:20:27;96469.34;;;15.90;83.57
41703;BME280;861;48.808;9.006;2023-08-30T01:26:36;96462.75;;;16.16;82.00
41703;BME280;861;48.808;9.006;2023-08-30T01:29:13;96464.09;;;16.24;81.62
41703;BME280;861;48.808;9.006;2023-08-30T01:31:48;96469.63;;;16.08;82.64
41703;BME280;861;48.808;9.006;2023-08-30T01:34:18;96469.28;;;16.06;82.65
41703;BME280;861;48.808;9.006;2023-08-30T01:36:46;96468.59;;;15.90;83.22
41703;BME280;861;48.808;9.006;2023-08-30T01:39:16;96467.06;;;15.73;83.87
41703;BME280;861;48.808;9.006;2023-08-30T01:41:44;96467.41;;;15.75;83.35
41703;BME280;861;48.808;9.006;2023-08-30T01:44:16;96467.38;;;15.91;82.63
41703;BME280;861;48.808;9.006;2023-08-30T01:46:45;96463.47;;;15.76;82.88
41703;BME280;861;48.808;9.006;2023-08-30T01:49:14;96464.06;;;15.83;82.96
41703;BME280;861;48.808;9.006;2023-08-30T01:51:41;96464.16;;;15.80;83.76
41703;BME280;861;48.808;9.006;2023-08-30T01:54:17;96470.91;;;15.91;82.36
41703;BME280;861;48.808;9.006;2023-08-30T01:56:46;96464.63;;;15.91;81.88
41703;BME280;861;48.808;9.006;2023-08-30T01:59:14;96469.53;;;15.83;81.63
41703;BME280;861;48.808;9.006;2023-08-30T02:01:40;96460.38;;;15.74;82.74
41703;BME280;861;48.808;9.006;2023-08-30T02:04:07;96468.13;;;15.63;83.62
41703;BME280;861;48.808;9.006;2023-08-30T02:06:43;96464.03;;;15.55;83.43
41703;BME280;861;48.808;9.006;2023-08-30T02:09:45;96464.88;;;15.52;84.40
41703;BME280;861;48.808;9.006;2023-08-30T02:12:20;96459.03;;;15.66;82.66
41703;BME280;861;48.808;9.006;2023-08-30T02:14:51;96462.44;;;15.70;82.99
41703;BME280;861;48.808;9.006;2023-08-30T02:17:20;96464.16;;;15.80;82.47
41703;BME280;861;48.808;9.006;2023-08-30T02:19:49;96469.59;;;15.96;80.75
41703;BME280;861;48.808;9.006;2023-08-30T02:22:19;96467.06;;;16.01;80.41
41703;BME280;861;48.808;9.006;2023-08-30T02:24:46;96475.00;;;15.99;81.05
41703;BME280;861;48.808;9.006;2023-08-30T02:27:12;96471.66;;;15.92;80.49
41703;BME280;861;48.808;9.006;2023-08-30T02:29:39;96473.63;;;15.91;79.94
41703;BME280;861;48.808;9.006;2023-08-30T02:32:06;96463.97;;;15.87;80.30
41703;BME280;861;48.808;9.006;2023-08-30T02:34:32;96468.28;;;15.72;81.14
41703;BME280;861;48.808;9.006;2023-08-30T02:36:59;96467.84;;;15.73;81.05
41703;BME280;861;48.808;9.006;2023-08-30T02:39:25;96468.28;;;15.72;81.09
41703;BME280;861;48.808;9.006;2023-08-30T02:41:52;96465.66;;;15.81;80.36
41703;BME280;861;48.808;9.006;2023-08-30T02:44:19;96469.53;;;15.83;80.24
41703;BME280;861;48.808;9.006;2023-08-30T02:46:45;96476.56;;;15.84;80.54
41703;BME280;861;48.808;9.006;2023-08-30T02:49:11;96472.00;;;15.49;81.05
41703;BME280;861;48.808;9.006;2023-08-30T02:51:38;96474.47;;;15.27;82.31
41703;BME280;861;48.808;9.006;2023-08-30T02:54:05;96464.03;;;15.39;82.37
41703;BME280;861;48.808;9.006;2023-08-30T02:56:32;96472.69;;;15.53;81.41
41703;BME280;861;48.808;9.006;2023-08-30T02:58:59;96469.25;;;15.49;82.33
41703;BME280;861;48.808;9.006;2023-08-30T03:01:26;96474.13;;;15.58;81.75
41703;BME280;861;48.808;9.006;2023-08-30T03:03:53;96473.72;;;15.43;82.05
41703;BME280;861;48.808;9.006;2023-08-30T03:06:19;96476.03;;;15.45;81.67
41703;BME280;861;48.808;9.006;2023-08-30T03:08:46;96473.28;;;15.45;81.86
41703;BME280;861;48.808;9.006;2023-08-30T03:11:14;96469.16;;;15.36;82.34
41703;BME280;861;48.808;9.006;2023-08-30T03:13:40;96466.44;;;15.20;84.20
41703;BME280;861;48.808;9.006;2023-08-30T03:16:15;96457.06;;;15.18;84.84
41703;BME280;861;48.808;9.006;2023-08-30T03:18:44;96457.41;;;15.36;82.67
41703;BME280;861;48.808;9.006;2023-08-30T03:21:11;96456.56;;;15.23;83.56
41703;BME280;861;48.808;9.006;2023-08-30T03:23:40;96451.16;;;15.35;83.10
41703;BME280;861;48.808;9.006;2023-08-30T03:26:13;96456.94;;;15.41;82.91
41703;BME280;861;48.808;9.006;2023-08-30T03:28:44;96444.66;;;15.46;81.82
41703;BME280;861;48.808;9.006;2023-08-30T03:31:22;96452.28;;;15.38;82.60
41703;BME280;861;48.808;9.006;2023-08-30T03:33:50;96446.97;;;15.47;81.83
41703;BME280;861;48.808;9.006;2023-08-30T03:36:18;96435.31;;;15.43;82.50
41703;BME280;861;48.808;9.006;2023-08-30T03:38:46;96444.66;;;15.46;82.31
41703;BME280;861;48.808;9.006;2023-08-30T03:41:12;96440.63;;;15.50;82.24
41703;BME280;861;48.808;9.006;2023-08-30T03:43:39;96446.28;;;15.43;82.54
41703;BME280;861;48.808;9.006;2023-08-30T03:46:06;96452.09;;;15.29;82.97
41703;BME280;861;48.808;9.006;2023-08-30T03:48:33;96448.19;;;15.14;83.36
41703;BME280;861;48.808;9.006;2023-08-30T03:51:00;96445.84;;;15.28;83.22
41703;BME280;861;48.808;9.006;2023-08-30T03:53:27;96456.91;;;15.09;83.84
41703;BME280;861;48.808;9.006;2023-08-30T03:55:53;96455.19;;;15.15;84.13
41703;BME280;861;48.808;9.006;2023-08-30T03:58:20;96453.91;;;15.35;83.52
41703;BME280;861;48.808;9.006;2023-08-30T04:00:47;96451.09;;;15.39;82.79
41703;BME280;861;48.808;9.006;2023-08-30T04:03:15;96456.41;;;15.30;83.86
41703;BME280;861;48.808;9.006;2023-08-30T04:05:43;96455.69;;;15.10;84.46
41703;BME280;861;48.808;9.006;2023-08-30T04:08:10;96458.38;;;15.29;83.87
41703;BME280;861;48.808;9.006;2023-08-30T04:10:39;96456.59;;;15.39;83.54
41703;BME280;861;48.808;9.006;2023-08-30T04:13:08;96459.47;;;15.32;84.65
41703;BME280;861;48.808;9.006;2023-08-30T04:15:39;96462.75;;;15.43;83.49
41703;BME280;861;48.808;9.006;2023-08-30T04:18:07;96453.91;;;15.52;83.97
41703;BME280;861;48.808;9.006;2023-08-30T04:20:34;96450.78;;;15.66;83.05
41703;BME280;861;48.808;9.006;2023-08-30T04:23:02;96455.81;;;15.39;83.64
41703;BME280;861;48.808;9.006;2023-08-30T04:25:30;96452.97;;;15.42;83.97
41703;BME280;861;48.808;9.006;2023-08-30T04:27:57;96450.66;;;15.41;83.73
41703;BME280;861;48.808;9.006;2023-08-30T04:30:24;96451.94;;;15.36;84.22
41703;BME280;861;48.808;9.006;2023-08-30T04:32:50;96452.03;;;15.49;83.44
41703;BME280;861;48.808;9.006;2023-08-30T04:35:17;96448.47;;;15.64;82.59
41703;BME280;861;48.808;9.006;2023-08-30T04:37:44;96451.47;;;15.70;82.97
41703;BME280;861;48.808;9.006;2023-08-30T04:40:11;96458.94;;;15.69;81.98
41703;BME280;861;48.808;9.006;2023-08-30T04:42:39;96449.16;;;15.68;82.53
41703;BME280;861;48.808;9.006;2023-08-30T04:45:07;96456.63;;;15.68;82.22
41703;BME280;861;48.808;9.006;2023-08-30T04:47:34;96456.19;;;15.69;81.95
41703;BME280;861;48.808;9.006;2023-08-30T04:50:01;96456.28;;;15.66;82.66
41703;BME280;861;48.808;9.006;2023-08-30T04:52:28;96451.31;;;15.61;82.91
41703;BME280;861;48.808;9.006;2023-08-30T04:54:55;96458.13;;;15.40;84.20
41703;BME280;861;48.808;9.006;2023-08-30T04:57:21;96458.94;;;15.37;83.92
41703;BME280;861;48.808;9.006;2023-08-30T04:59:49;96456.94;;;15.41;83.91
41703;BME280;861;48.808;9.006;2023-08-30T05:02:15;96455.97;;;15.31;84.57
41703;BME280;861;48.808;9.006;2023-08-30T05:04:42;96458.72;;;15.15;86.15
41703;BME280;861;48.808;9.006;2023-08-30T05:07:08;96464.28;;;15.12;85.88
41703;BME280;861;48.808;9.006;2023-08-30T05:09:35;96454.16;;;15.09;86.04
41703;BME280;861;48.808;9.006;2023-08-30T05:12:02;96458.94;;;15.05;86.43
41703;BME280;861;48.808;9.006;2023-08-30T05:14:29;96456.28;;;15.17;87.04
41703;BME280;861;48.808;9.006;2023-08-30T05:16:55;96453.22;;;15.31;86.54
41703;BME280;861;48.808;9.006;2023-08-30T05:19:22;96459.81;;;15.34;86.16
41703;BME280;861;48.808;9.006;2023-08-30T05:21:49;96462.91;;;15.36;86.07
41703;BME280;861;48.808;9.006;2023-08-30T05:24:22;96460.50;;;15.38;85.38
41703;BME280;861;48.808;9.006;2023-08-30T05:26:48;96465.41;;;15.47;85.84
41703;BME280;861;48.808;9.006;2023-08-30T05:29:16;96468.94;;;15.47;85.05
41703;BME280;861;48.808;9.006;2023-08-30T05:31:43;96465.75;;;15.49;85.43
41703;BME280;861;48.808;9.006;2023-08-30T05:34:11;96463.31;;;15.51;84.74
41703;BME280;861;48.808;9.006;2023-08-30T05:36:38;96463.25;;;15.54;85.73
41703;BME280;861;48.808;9.006;2023-08-30T05:39:05;96455.50;;;15.65;85.18
41703;BME280;861;48.808;9.006;2023-08-30T05:41:32;96456.25;;;15.82;83.74
41703;BME280;861;48.808;9.006;2023-08-30T05:43:59;96450.63;;;15.85;83.39
41703;BME280;861;48.808;9.006;2023-08-30T05:46:25;96447.84;;;15.73;84.15
41703;BME280;861;48.808;9.006;2023-08-30T05:48:52;96451.84;;;15.84;83.60
41703;BME280;861;48.808;9.006;2023-08-30T05:51:20;96454.94;;;15.86;83.48
41703;BME280;861;48.808;9.006;2023-08-30T05:53:47;96448.59;;;15.89;83.73
41703;BME280;861;48.808;9.006;2023-08-30T05:56:14;96454.84;;;15.90;83.82
41703;BME280;861;48.808;9.006;2023-08-30T05:58:40;96460.44;;;15.86;83.81
41703;BME280;861;48.808;9.006;2023-08-30T06:01:07;96447.72;;;15.92;83.40
41703;BME280;861;48.808;9.006;2023-08-30T06:03:33;96459.13;;;15.91;83.94
41703;BME280;861;48.808;9.006;2023-08-30T06:06:01;96457.25;;;15.88;84.59
41703;BME280;861;48.808;9.006;2023-08-30T06:08:28;96459.66;;;15.86;84.29
41703;BME280;861;48.808;9.006;2023-08-30T06:10:54;96464.00;;;15.71;85.14
41703;BME280;861;48.808;9.006;2023-08-30T06:13:21;96468.72;;;15.70;85.32
41703;BME280;861;48.808;9.006;2023-08-30T06:15:52;96462.31;;;15.89;84.67
41703;BME280;861;48.808;9.006;2023-08-30T06:18:20;96464.19;;;15.92;85.19
41703;BME280;861;48.808;9.006;2023-08-30T06:20:47;96474.44;;;16.04;84.55
41703;BME280;861;48.808;9.006;2023-08-30T06:23:17;96475.22;;;16.05;84.44
41703;BME280;861;48.808;9.006;2023-08-30T06:25:52;96466.19;;;16.04;83.78
41703;BME280;861;48.808;9.006;2023-08-30T06:28:20;96467.06;;;16.01;84.40
41703;BME280;861;48.808;9.006;2023-08-30T06:30:47;96471.34;;;15.90;84.61
41703;BME280;861;48.808;9.006;2023-08-30T06:33:13;96472.72;;;16.10;84.28
41703;BME280;861;48.808;9.006;2023-08-30T06:35:40;96465.81;;;16.18;83.19
41703;BME280;861;48.808;9.006;2023-08-30T06:38:07;96466.66;;;16.15;83.33
41703;BME280;861;48.808;9.006;2023-08-30T06:40:33;96468.94;;;16.04;84.05
41703;BME280;861;48.808;9.006;2023-08-30T06:43:01;96470.06;;;16.07;84.44
41703;BME280;861;48.808;9.006;2023-08-30T06:45:28;96471.72;;;16.17;84.09
41703;BME280;861;48.808;9.006;2023-08-30T06:47:55;96464.44;;;15.98;85.17
41703;BME280;861;48.808;9.006;2023-08-30T06:50:21;96465.84;;;15.90;85.47
41703;BME280;861;48.808;9.006;2023-08-30T06:52:48;96466.44;;;15.81;85.85
41703;BME280;861;48.808;9.006;2023-08-30T06:55:14;96463.28;;;15.83;84.96
41703;BME280;861;48.808;9.006;2023-08-30T06:57:41;96456.78;;;15.77;85.96
41703;BME280;861;48.808;9.006;2023-08-30T07:00:08;96462.25;;;15.77;86.13
41703;BME280;861;48.808;9.006;2023-08-30T07:02:38;96459.31;;;15.84;85.78
41703;BME280;861;48.808;9.006;2023-08-30T07:05:05;96461.91;;;16.03;84.71
41703;BME280;861;48.808;9.006;2023-08-30T07:07:33;96461.56;;;16.01;85.09
41703;BME280;861;48.808;9.006;2023-08-30T07:09:59;96452.03;;;16.06;85.10
41703;BME280;861;48.808;9.006;2023-08-30T07:12:26;96455.34;;;16.01;84.23
41703;BME280;861;48.808;9.006;2023-08-30T07:14:53;96456.28;;;15.94;84.20
41703;BME280;861;48.808;9.006;2023-08-30T07:17:20;96453.72;;;15.87;84.34
41703;BME280;861;48.808;9.006;2023-08-30T07:19:46;96456.13;;;15.85;84.96
41703;BME280;861;48.808;9.006;2023-08-30T07:22:13;96459.31;;;15.84;85.15
41703;BME280;861;48.808;9.006;2023-08-30T07:24:45;96459.78;;;15.95;84.76
41703;BME280;861;48.808;9.006;2023-08-30T07:27:12;96456.81;;;15.89;85.36
41703;BME280;861;48.808;9.006;2023-08-30T07:29:39;96453.50;;;16.10;84.94
41703;BME280;861;48.808;9.006;2023-08-30T07:32:07;96464.53;;;16.35;84.34
41703;BME280;861;48.808;9.006;2023-08-30T07:34:34;96456.97;;;16.39;83.71
41703;BME280;861;48.808;9.006;2023-08-30T07:37:01;96458.97;;;16.51;83.33
41703;BME280;861;48.808;9.006;2023-08-30T07:39:28;96461.31;;;16.53;83.40
41703;BME280;861;48.808;9.006;2023-08-30T07:41:54;96454.94;;;16.56;83.42
41703;BME280;861;48.808;9.006;2023-08-30T07:44:21;96460.88;;;16.54;83.60
41703;BME280;861;48.808;9.006;2023-08-30T07:46:48;96464.06;;;16.53;84.10
41703;BME280;861;48.808;9.006;2023-08-30T07:49:14;96455.31;;;16.42;83.58
41703;BME280;861;48.808;9.006;2023-08-30T07:51:41;96455.00;;;16.40;84.36
41703;BME280;861;48.808;9.006;2023-08-30T07:54:07;96452.72;;;16.51;83.97
41703;BME280;861;48.808;9.006;2023-08-30T07:56:34;96453.38;;;16.55;83.51
41703;BME280;861;48.808;9.006;2023-08-30T07:59:00;96447.78;;;16.71;82.73
41703;BME280;861;48.808;9.006;2023-08-30T08:01:27;96449.75;;;16.83;82.54
41703;BME280;861;48.808;9.006;2023-08-30T08:03:53;96450.00;;;16.89;81.20
41703;BME280;861;48.808;9.006;2023-08-30T08:06:20;96450.19;;;16.94;80.58
41703;BME280;861;48.808;9.006;2023-08-30T08:08:46;96446.69;;;17.06;79.61
41703;BME280;861;48.808;9.006;2023-08-30T08:11:13;96441.41;;;16.99;80.13
41703;BME280;861;48.808;9.006;2023-08-30T08:13:40;96449.53;;;17.03;81.12
41703;BME280;861;48.808;9.006;2023-08-30T08:16:06;96450.63;;;17.18;81.18
41703;BME280;861;48.808;9.006;2023-08-30T08:18:33;96441.13;;;17.31;80.27
41703;BME280;861;48.808;9.006;2023-08-30T08:20:59;96450.38;;;17.37;80.81
41703;BME280;861;48.808;9.006;2023-08-30T08:23:26;96454.88;;;17.44;80.50
41703;BME280;861;48.808;9.006;2023-08-30T08:26:00;96456.97;;;17.52;80.14
41703;BME280;861;48.808;9.006;2023-08-30T08:28:27;96453.44;;;17.52;79.69
41703;BME280;861;48.808;9.006;2023-08-30T08:30:54;96453.19;;;17.59;79.28
41703;BME280;861;48.808;9.006;2023-08-30T08:33:21;96451.13;;;17.63;78.37
41703;BME280;861;48.808;9.006;2023-08-30T08:35:50;96441.56;;;17.76;78.35
41703;BME280;861;48.808;9.006;2023-08-30T08:38:16;96440.22;;;17.81;78.25
41703;BME280;861;48.808;9.006;2023-08-30T08:40:43;96447.59;;;17.84;78.64
41703;BME280;861;48.808;9.006;2023-08-30T08:43:13;96437.44;;;17.93;78.23
41703;BME280;861;48.808;9.006;2023-08-30T08:45:44;96443.47;;;18.01;78.23
41703;BME280;861;48.808;9.006;2023-08-30T08:48:15;96447.75;;;18.23;77.57
41703;BME280;861;48.808;9.006;2023-08-30T08:50:44;96450.72;;;18.29;77.88
41703;BME280;861;48.808;9.006;2023-08-30T08:53:13;96451.56;;;18.39;78.16
41703;BME280;861;48.808;9.006;2023-08-30T08:55:41;96450.78;;;18.38;76.50
41703;BME280;861;48.808;9.006;2023-08-30T08:58:12;96453.97;;;18.37;75.92
41703;BME280;861;48.808;9.006;2023-08-30T09:00:44;96453.28;;;18.45;75.23
41703;BME280;861;48.808;9.006;2023-08-30T09:03:12;96447.72;;;18.67;75.43
41703;BME280;861;48.808;9.006;2023-08-30T09:05:39;96451.00;;;18.83;76.29
41703;BME280;861;48.808;9.006;2023-08-30T09:08:07;96458.56;;;18.92;76.07
41703;BME280;861;48.808;9.006;2023-08-30T09:10:37;96453.38;;;18.94;76.49
41703;BME280;861;48.808;9.006;2023-08-30T09:13:04;96458.25;;;18.90;76.95
41703;BME280;861;48.808;9.006;2023-08-30T09:15:35;96448.31;;;18.92;75.51
41703;BME280;861;48.808;9.006;2023-08-30T09:18:14;96449.72;;;18.97;74.01
41703;BME280;861;48.808;9.006;2023-08-30T09:20:41;96442.69;;;19.05;73.00
41703;BME280;861;48.808;9.006;2023-08-30T09:23:18;96444.47;;;19.29;74.31
41703;BME280;861;48.808;9.006;2023-08-30T09:25:47;96451.53;;;19.39;74.68
41703;BME280;861;48.808;9.006;2023-08-30T09:28:21;96447.75;;;19.55;74.34
41703;BME280;861;48.808;9.006;2023-08-30T09:30:52;96447.13;;;19.69;71.11
41703;BME280;861;48.808;9.006;2023-08-30T09:33:33;96440.22;;;19.83;71.01
41703;BME280;861;48.808;9.006;2023-08-30T09:36:00;96438.06;;;20.05;68.83
41703;BME280;861;48.808;9.006;2023-08-30T09:38:27;96439.78;;;20.20;70.78
41703;BME280;861;48.808;9.006;2023-08-30T09:41:07;96439.59;;;20.42;69.67
41703;BME280;861;48.808;9.006;2023-08-30T09:43:41;96436.81;;;20.51;67.62
41703;BME280;861;48.808;9.006;2023-08-30T09:46:08;96433.25;;;20.59;66.48
41703;BME280;861;48.808;9.006;2023-08-30T09:48:38;96432.44;;;20.68;67.52
41703;BME280;861;48.808;9.006;2023-08-30T09:51:09;96432.44;;;20.68;67.32
41703;BME280;861;48.808;9.006;2023-08-30T09:53:45;96431.00;;;20.90;66.85
41703;BME280;861;48.808;9.006;2023-08-30T09:56:18;96436.69;;;20.87;66.73
41703;BME280;861;48.808;9.006;2023-08-30T09:58:49;96439.94;;;20.85;63.98
41703;BME280;861;48.808;9.006;2023-08-30T10:01:17;96441.59;;;21.01;65.50
41703;BME280;861;48.808;9.006;2023-08-30T10:03:44;96439.78;;;21.21;63.96
41703;BME280;861;48.808;9.006;2023-08-30T10:06:11;96432.81;;;21.35;63.92
41703;BME280;861;48.808;9.006;2023-08-30T10:08:39;96423.84;;;21.40;64.72
41703;BME280;861;48.808;9.006;2023-08-30T10:11:10;96425.53;;;21.61;60.61
41703;BME280;861;48.808;9.006;2023-08-30T10:13:43;96427.97;;;21.68;62.35
41703;BME280;861;48.808;9.006;2023-08-30T10:16:19;96415.97;;;21.86;59.88
41703;BME280;861;48.808;9.006;2023-08-30T10:19:06;96420.00;;;21.61;61.59
41703;BME280;861;48.808;9.006;2023-08-30T10:21:37;96414.38;;;21.56;63.62
41703;BME280;861;48.808;9.006;2023-08-30T10:24:10;96406.00;;;22.03;57.61
41703;BME280;861;48.808;9.006;2023-08-30T10:26:43;96406.53;;;21.92;60.75
41703;BME280;861;48.808;9.006;2023-08-30T10:29:15;96397.97;;;22.05;62.88
41703;BME280;861;48.808;9.006;2023-08-30T10:31:43;96402.06;;;22.09;62.72
41703;BME280;861;48.808;9.006;2023-08-30T10:34:16;96390.44;;;22.34;59.90
41703;BME280;861;48.808;9.006;2023-08-30T10:36:59;96388.06;;;22.56;61.03
41703;BME280;861;48.808;9.006;2023-08-30T10:39:39;96395.31;;;22.83;58.61
41703;BME280;861;48.808;9.006;2023-08-30T10:42:21;96384.13;;;22.63;59.02
41703;BME280;861;48.808;9.006;2023-08-30T10:45:13;96377.59;;;22.81;57.53
41703;BME280;861;48.808;9.006;2023-08-30T10:47:40;96385.19;;;22.65;59.57
41703;BME280;861;48.808;9.006;2023-08-30T10:50:13;96387.78;;;22.69;60.02
41703;BME280;861;48.808;9.006;2023-08-30T10:52:40;96383.56;;;22.74;60.26
41703;BME280;861;48.808;9.006;2023-08-30T10:55:13;96391.00;;;23.17;58.21
41703;BME280;861;48.808;9.006;2023-08-30T10:57:46;96396.09;;;22.54;60.54
41703;BME280;861;48.808;9.006;2023-08-30T11:00:23;96390.25;;;22.67;56.93
41703;BME280;861;48.808;9.006;2023-08-30T11:02:52;96393.53;;;21.84;61.15
41703;BME280;861;48.808;9.006;2023-08-30T11:05:26;96404.34;;;21.35;65.03
41703;BME280;861;48.808;9.006;2023-08-30T11:07:54;96402.22;;;20.88;64.72
41703;BME280;861;48.808;9.006;2023-08-30T11:10:22;96406.28;;;20.78;63.94
41703;BME280;861;48.808;9.006;2023-08-30T11:12:49;96410.75;;;20.16;66.61
41703;BME280;861;48.808;9.006;2023-08-30T11:15:16;96403.09;;;19.93;70.21
41703;BME280;861;48.808;9.006;2023-08-30T11:17:44;96406.31;;;19.55;70.83
41703;BME280;861;48.808;9.006;2023-08-30T11:20:16;96411.44;;;19.26;73.02
41703;BME280;861;48.808;9.006;2023-08-30T11:22:47;96410.44;;;18.93;75.24
41703;BME280;861;48.808;9.006;2023-08-30T11:25:16;96411.94;;;18.85;76.00
41703;BME280;861;48.808;9.006;2023-08-30T11:27:43;96408.44;;;18.84;76.86
41703;BME280;861;48.808;9.006;2023-08-30T11:30:11;96407.06;;;18.98;77.12
41703;BME280;861;48.808;9.006;2023-08-30T11:32:42;96402.69;;;19.09;78.33
41703;BME280;861;48.808;9.006;2023-08-30T11:35:09;96402.53;;;19.13;77.62
41703;BME280;861;48.808;9.006;2023-08-30T11:37:36;96400.53;;;19.13;76.82
41703;BME280;861;48.808;9.006;2023-08-30T11:40:05;96406.50;;;19.12;75.57
41703;BME280;861;48.808;9.006;2023-08-30T11:42:32;96399.25;;;18.96;76.84
41703;BME280;861;48.808;9.006;2023-08-30T11:45:01;96405.41;;;19.00;78.82
41703;BME280;861;48.808;9.006;2023-08-30T11:47:29;96403.88;;;18.99;79.88
41703;BME280;861;48.808;9.006;2023-08-30T11:49:57;96410.19;;;19.18;78.88
41703;BME280;861;48.808;9.006;2023-08-30T11:52:26;96403.16;;;19.26;78.74
41703;BME280;861;48.808;9.006;2023-08-30T11:54:55;96400.06;;;19.15;78.62
41703;BME280;861;48.808;9.006;2023-08-30T11:57:23;96411.56;;;19.13;79.06
41703;BME280;861;48.808;9.006;2023-08-30T11:59:50;96400.53;;;19.13;78.74
41703;BME280;861;48.808;9.006;2023-08-30T12:02:18;96400.84;;;19.15;78.30
41703;BME280;861;48.808;9.006;2023-08-30T12:04:47;96406.38;;;19.15;78.09
41703;BME280;861;48.808;9.006;2023-08-30T12:07:24;96392.44;;;19.19;78.33
41703;BME280;861;48.808;9.006;2023-08-30T12:10:03;96395.34;;;19.24;78.28
41703;BME280;861;48.808;9.006;2023-08-30T12:12:30;96392.78;;;19.39;78.15
41703;BME280;861;48.808;9.006;2023-08-30T12:14:57;96392.50;;;19.46;78.15
41703;BME280;861;48.808;9.006;2023-08-30T12:17:24;96385.28;;;19.57;77.75
41703;BME280;861;48.808;9.006;2023-08-30T12:19:58;96383.28;;;19.85;77.44
41703;BME280;861;48.808;9.006;2023-08-30T12:22:39;96383.88;;;19.98;77.46
41703;BME280;861;48.808;9.006;2023-08-30T12:25:22;96390.47;;;20.01;78.30
41703;BME280;861;48.808;9.006;2023-08-30T12:27:53;96376.50;;;20.04;77.05
41703;BME280;861;48.808;9.006;2023-08-30T12:30:20;96380.19;;;20.10;77.03
41703;BME280;861;48.808;9.006;2023-08-30T12:32:47;96370.66;;;20.20;76.43
41703;BME280;861;48.808;9.006;2023-08-30T12:35:15;96371.41;;;20.30;75.38
41703;BME280;861;48.808;9.006;2023-08-30T12:37:43;96365.41;;;20.40;75.49
41703;BME280;861;48.808;9.006;2023-08-30T12:40:10;96367.81;;;20.56;75.26
41703;BME280;861;48.808;9.006;2023-08-30T12:42:37;96361.59;;;20.70;75.01
41703;BME280;861;48.808;9.006;2023-08-30T12:45:05;96359.19;;;20.87;75.03
41703;BME280;861;48.808;9.006;2023-08-30T12:47:33;96366.34;;;21.35;74.69
41703;BME280;861;48.808;9.006;2023-08-30T12:50:00;96358.38;;;21.66;71.89
41703;BME280;861;48.808;9.006;2023-08-30T12:52:27;96365.44;;;21.67;73.37
41703;BME280;861;48.808;9.006;2023-08-30T12:54:54;96358.22;;;21.70;74.70
41703;BME280;861;48.808;9.006;2023-08-30T12:57:21;96362.03;;;21.72;72.93
41703;BME280;861;48.808;9.006;2023-08-30T12:59:47;96353.25;;;21.74;72.94
41703;BME280;861;48.808;9.006;2023-08-30T13:02:14;96338.97;;;21.90;72.36
41703;BME280;861;48.808;9.006;2023-08-30T13:04:41;96351.59;;;22.05;71.56
41703;BME280;861;48.808;9.006;2023-08-30T13:07:07;96337.06;;;22.25;72.59
41703;BME280;861;48.808;9.006;2023-08-30T13:09:34;96350.16;;;22.53;72.25
41703;BME280;861;48.808;9.006;2023-08-30T13:12:00;96345.69;;;22.91;71.01
41703;BME280;861;48.808;9.006;2023-08-30T13:14:27;96347.81;;;23.16;69.32
41703;BME280;861;48.808;9.006;2023-08-30T13:16:53;96334.16;;;23.52;69.39
41703;BME280;861;48.808;9.006;2023-08-30T13:19:20;96333.00;;;23.84;67.42
41703;BME280;861;48.808;9.006;2023-08-30T13:21:47;96338.88;;;24.12;68.37
41703;BME280;861;48.808;9.006;2023-08-30T13:24:13;96337.72;;;24.24;62.21
41703;BME280;861;48.808;9.006;2023-08-30T13:26:40;96336.59;;;24.42;68.36
41703;BME280;861;48.808;9.006;2023-08-30T13:29:07;96335.81;;;24.67;62.87
41703;BME280;861;48.808;9.006;2023-08-30T13:31:33;96335.69;;;24.81;63.07
41703;BME280;861;48.808;9.006;2023-08-30T13:34:00;96336.28;;;24.96;62.21